createdAt,value
2018-05-04T00:00:02.036Z,84.00
2018-05-04T00:02:29.573Z,84.10
2018-05-04T00:04:57.084Z,83.80
2018-05-04T00:07:24.630Z,83.80
2018-05-04T00:09:52.142Z,84.10
2018-05-04T00:12:19.710Z,84.50
2018-05-04T00:14:47.218Z,84.40
2018-05-04T00:17:14.764Z,84.40
2018-05-04T00:19:43.064Z,85.10
2018-05-04T00:22:10.611Z,85.00
2018-05-04T00:24:38.127Z,84.90
2018-05-04T00:27:05.673Z,85.20
2018-05-04T00:29:33.183Z,84.80
2018-05-04T00:32:00.752Z,85.00
2018-05-04T00:34:28.267Z,85.30
2018-05-04T00:36:55.783Z,85.50
2018-05-04T00:39:23.313Z,86.10
2018-05-04T00:41:51.587Z,86.20
2018-05-04T00:44:19.897Z,86.50
2018-05-04T00:46:47.399Z,86.40
2018-05-04T00:49:14.947Z,87.10
2018-05-04T00:51:42.463Z,87.30
2018-05-04T00:54:24.732Z,86.80
2018-05-04T00:56:52.239Z,86.40
2018-05-04T00:59:19.793Z,86.10
2018-05-04T01:01:47.320Z,86.40
2018-05-04T01:04:14.889Z,86.10
2018-05-04T01:06:42.408Z,85.80
2018-05-04T01:09:09.956Z,85.80
2018-05-04T01:11:37.467Z,85.80
2018-05-04T01:14:05.016Z,85.70
2018-05-04T01:16:32.516Z,85.40
2018-05-04T01:19:00.080Z,85.40
2018-05-04T01:21:27.599Z,84.90
2018-05-04T01:23:55.117Z,85.10
2018-05-04T01:26:22.694Z,85.00
2018-05-04T01:28:50.214Z,85.10
2018-05-04T01:31:17.760Z,84.80
2018-05-04T01:33:45.276Z,84.60
2018-05-04T01:36:12.832Z,84.70
2018-05-04T01:38:40.352Z,84.50
2018-05-04T01:41:07.902Z,84.40
2018-05-04T01:43:35.429Z,84.30
2018-05-04T01:46:02.988Z,84.30
2018-05-04T01:48:30.512Z,84.40
2018-05-04T01:50:58.062Z,83.90
2018-05-04T01:53:25.580Z,84.00
2018-05-04T01:55:53.123Z,84.30
2018-05-04T01:58:20.666Z,84.40
2018-05-04T02:00:48.177Z,84.00
2018-05-04T02:03:15.724Z,84.20
2018-05-04T02:05:43.240Z,84.00
2018-05-04T02:08:10.775Z,83.80
2018-05-04T02:10:38.286Z,83.70
2018-05-04T02:13:06.596Z,83.30
2018-05-04T02:15:34.133Z,83.30
2018-05-04T02:18:01.678Z,83.30
2018-05-04T02:20:29.952Z,82.90
2018-05-04T02:22:58.283Z,83.00
2018-05-04T02:25:25.800Z,82.90
2018-05-04T02:27:53.342Z,82.90
2018-05-04T02:30:21.632Z,82.80
2018-05-04T02:32:49.189Z,82.70
2018-05-04T02:35:16.726Z,82.90
2018-05-04T02:37:44.304Z,82.80
2018-05-04T02:40:11.848Z,82.60
2018-05-04T02:42:39.386Z,82.40
2018-05-04T02:45:06.938Z,82.50
2018-05-04T02:47:34.460Z,82.80
2018-05-04T02:50:02.028Z,82.90
2018-05-04T02:52:29.548Z,82.70
2018-05-04T02:54:57.100Z,82.50
2018-05-04T02:57:24.620Z,82.80
2018-05-04T02:59:52.205Z,82.40
2018-05-04T03:02:19.696Z,81.80
2018-05-04T03:04:47.253Z,82.00
2018-05-04T03:07:15.546Z,82.30
2018-05-04T03:09:43.088Z,82.20
2018-05-04T03:12:10.606Z,82.50
2018-05-04T03:14:38.157Z,82.50
2018-05-04T03:17:05.693Z,82.50
2018-05-04T03:19:33.210Z,82.50
2018-05-04T03:22:00.801Z,82.40
2018-05-04T03:24:28.290Z,82.40
2018-05-04T03:26:55.843Z,82.80
2018-05-04T03:29:23.351Z,82.70
2018-05-04T03:31:50.898Z,82.90
2018-05-04T03:34:18.402Z,82.70
2018-05-04T03:36:45.955Z,82.70
2018-05-04T03:39:13.456Z,82.70
2018-05-04T03:41:41.008Z,82.70
2018-05-04T03:44:08.529Z,82.80
2018-05-04T03:46:36.936Z,82.70
2018-05-04T03:49:04.464Z,83.00
2018-05-04T03:51:32.017Z,82.60
2018-05-04T03:54:00.313Z,82.70
2018-05-04T03:56:27.864Z,82.70
2018-05-04T03:59:07.053Z,82.60
2018-05-04T04:01:46.436Z,82.60
2018-05-04T04:04:14.303Z,82.90
2018-05-04T04:06:41.843Z,82.50
2018-05-04T04:09:09.388Z,82.30
2018-05-04T04:11:36.914Z,82.50
2018-05-04T04:14:04.456Z,82.90
2018-05-04T04:16:31.976Z,82.30
2018-05-04T04:18:59.512Z,82.70
2018-05-04T04:21:27.145Z,82.50
2018-05-04T04:23:54.688Z,82.20
2018-05-04T04:26:22.198Z,82.70
2018-05-04T04:28:50.543Z,82.80
2018-05-04T04:31:18.070Z,82.70
2018-05-04T04:33:45.630Z,82.80
2018-05-04T04:36:13.144Z,83.00
2018-05-04T04:38:40.690Z,83.00
2018-05-04T04:41:08.198Z,83.10
2018-05-04T04:43:36.502Z,83.00
2018-05-04T04:46:04.024Z,82.90
2018-05-04T04:48:31.578Z,83.10
2018-05-04T04:50:59.098Z,83.10
2018-05-04T04:53:26.590Z,83.50
2018-05-04T04:55:54.150Z,83.30
2018-05-04T04:58:21.660Z,83.20
2018-05-04T05:00:49.190Z,83.00
2018-05-04T05:03:16.702Z,82.80
2018-05-04T05:05:44.998Z,83.30
2018-05-04T05:08:12.518Z,83.10
2018-05-04T05:10:40.763Z,83.10
2018-05-04T05:13:09.038Z,83.30
2018-05-04T05:15:36.578Z,83.20
2018-05-04T05:18:04.087Z,83.30
2018-05-04T05:20:31.626Z,83.60
2018-05-04T05:22:59.137Z,83.00
2018-05-04T05:25:26.696Z,83.60
2018-05-04T05:27:54.974Z,83.30
2018-05-04T05:30:22.517Z,83.10
2018-05-04T05:32:50.790Z,83.20
2018-05-04T05:35:18.362Z,83.20
2018-05-04T05:37:45.879Z,83.50
2018-05-04T05:40:13.910Z,83.10
2018-05-04T05:42:41.458Z,83.30
2018-05-04T05:45:09.751Z,83.90
2018-05-04T05:47:37.303Z,83.80
2018-05-04T05:50:04.806Z,83.80
2018-05-04T05:52:32.348Z,84.00
2018-05-04T05:54:59.863Z,83.30
2018-05-04T05:57:27.402Z,83.30
2018-05-04T05:59:54.910Z,83.30
2018-05-04T06:02:22.448Z,83.60
2018-05-04T06:04:49.957Z,83.20
2018-05-04T06:07:17.522Z,83.60
2018-05-04T06:09:45.033Z,83.20
2018-05-04T06:12:12.716Z,82.90
2018-05-04T06:14:40.268Z,83.30
2018-05-04T06:17:07.861Z,83.10
2018-05-04T06:19:35.480Z,83.60
2018-05-04T06:22:03.061Z,83.80
2018-05-04T06:24:30.643Z,83.70
2018-05-04T06:26:58.214Z,83.60
2018-05-04T06:29:25.816Z,83.10
2018-05-04T06:31:53.380Z,83.30
2018-05-04T06:34:21.450Z,83.40
2018-05-04T06:36:49.032Z,83.80
2018-05-04T06:39:17.386Z,83.30
2018-05-04T06:41:44.924Z,83.10
2018-05-04T06:44:12.499Z,83.20
2018-05-04T06:46:40.032Z,83.10
2018-05-04T06:49:07.636Z,82.60
2018-05-04T06:51:35.168Z,82.70
2018-05-04T06:54:02.688Z,82.80
2018-05-04T06:56:30.298Z,82.30
2018-05-04T06:58:57.827Z,82.30
2018-05-04T07:01:25.414Z,82.30
2018-05-04T07:03:52.948Z,81.10
2018-05-04T07:06:20.577Z,81.20
2018-05-04T07:08:48.168Z,81.10
2018-05-04T07:11:16.259Z,81.10
2018-05-04T07:13:43.797Z,81.40
2018-05-04T07:16:11.379Z,81.20
2018-05-04T07:18:38.958Z,80.30
2018-05-04T07:21:06.571Z,80.60
2018-05-04T07:23:34.162Z,80.10
2018-05-04T07:26:01.791Z,80.80
2018-05-04T07:28:29.336Z,80.50
2018-05-04T07:30:56.937Z,80.50
2018-05-04T07:33:24.498Z,79.70
2018-05-04T07:35:52.116Z,80.20
2018-05-04T07:38:19.712Z,79.70
2018-05-04T07:40:47.281Z,79.80
2018-05-04T07:43:14.946Z,79.60
2018-05-04T07:45:42.498Z,80.10
2018-05-04T07:48:10.124Z,80.30
2018-05-04T07:50:38.430Z,79.40
2018-05-04T07:53:06.044Z,79.40
2018-05-04T07:55:33.628Z,80.60
2018-05-04T07:58:01.235Z,80.20
2018-05-04T08:00:28.773Z,79.60
2018-05-04T08:02:56.384Z,79.10
2018-05-04T08:05:23.953Z,77.70
2018-05-04T08:07:52.353Z,79.10
2018-05-04T08:10:19.917Z,79.00
2018-05-04T08:12:47.526Z,77.80
2018-05-04T08:15:15.118Z,77.30
2018-05-04T08:17:43.760Z,78.50
2018-05-04T08:20:11.450Z,77.60
2018-05-04T08:22:38.976Z,78.20
2018-05-04T08:25:06.573Z,77.50
2018-05-04T08:27:34.158Z,78.40
2018-05-04T08:30:02.012Z,77.90
2018-05-04T08:32:30.349Z,80.20
2018-05-04T08:34:58.754Z,78.90
2018-05-04T08:37:27.044Z,78.20
2018-05-04T08:39:54.661Z,77.50
2018-05-04T08:42:22.223Z,78.30
2018-05-04T08:44:49.835Z,77.40
2018-05-04T08:47:17.368Z,77.60
2018-05-04T08:49:44.963Z,76.20
2018-05-04T08:52:12.496Z,75.50
2018-05-04T08:54:40.842Z,77.40
2018-05-04T08:57:08.490Z,77.20
2018-05-04T08:59:36.038Z,76.10
2018-05-04T09:02:03.579Z,76.10
2018-05-04T09:04:31.192Z,76.20
2018-05-04T09:06:58.740Z,76.60
2018-05-04T09:09:26.288Z,77.70
2018-05-04T09:11:53.875Z,77.40
2018-05-04T09:14:22.199Z,75.80
2018-05-04T09:16:49.945Z,75.70
2018-05-04T09:19:17.515Z,75.90
2018-05-04T09:21:45.108Z,76.80
2018-05-04T09:24:12.630Z,75.60
2018-05-04T09:26:40.962Z,74.90
2018-05-04T09:29:08.506Z,74.90
2018-05-04T09:31:36.139Z,77.20
2018-05-04T09:34:03.728Z,73.80
2018-05-04T09:36:31.348Z,76.50
2018-05-04T09:38:59.044Z,74.00
2018-05-04T09:41:26.638Z,72.40
2018-05-04T09:43:54.989Z,72.90
2018-05-04T09:46:22.620Z,72.80
2018-05-04T09:48:50.248Z,72.90
2018-05-04T09:51:17.820Z,71.40
2018-05-04T09:53:45.390Z,70.90
2018-05-04T09:56:13.708Z,71.00
2018-05-04T09:58:41.351Z,71.00
2018-05-04T10:01:08.895Z,71.40
2018-05-04T10:03:36.541Z,69.70
2018-05-04T10:06:04.084Z,71.40
2018-05-04T10:08:31.681Z,71.10
2018-05-04T10:11:00.009Z,71.50
2018-05-04T10:13:27.607Z,71.50
2018-05-04T10:15:55.188Z,69.60
2018-05-04T10:18:22.747Z,68.20
2018-05-04T10:20:50.331Z,67.40
2018-05-04T10:23:17.955Z,69.00
2018-05-04T10:25:46.294Z,66.10
2018-05-04T10:28:13.889Z,66.10
2018-05-04T10:30:42.434Z,67.00
2018-05-04T10:33:10.068Z,67.00
2018-05-04T10:35:38.006Z,66.10
2018-05-04T10:38:05.630Z,66.70
2018-05-04T10:40:33.181Z,67.90
2018-05-04T10:43:00.784Z,66.90
2018-05-04T10:45:28.361Z,68.10
2018-05-04T10:47:55.954Z,69.00
2018-05-04T10:50:23.534Z,67.10
2018-05-04T10:52:51.110Z,68.90
2018-05-04T10:55:18.793Z,67.80
2018-05-04T10:57:47.142Z,67.70
2018-05-04T11:00:14.825Z,67.60
2018-05-04T11:02:42.409Z,67.60
2018-05-04T11:05:10.031Z,68.40
2018-05-04T11:07:37.560Z,68.40
2018-05-04T11:10:05.124Z,68.30
2018-05-04T11:12:32.723Z,68.20
2018-05-04T11:15:00.348Z,67.40
2018-05-04T11:17:27.883Z,68.10
2018-05-04T11:19:55.520Z,66.60
2018-05-04T11:22:23.077Z,67.40
2018-05-04T11:24:50.653Z,67.30
2018-05-04T11:27:18.276Z,66.70
2018-05-04T11:29:45.824Z,67.90
2018-05-04T11:32:13.474Z,66.70
2018-05-04T11:34:41.040Z,67.90
2018-05-04T11:37:08.658Z,67.50
2018-05-04T11:39:36.222Z,67.60
2018-05-04T11:42:03.867Z,66.30
2018-05-04T11:44:31.419Z,66.60
2018-05-04T11:46:59.731Z,65.30
2018-05-04T11:49:27.273Z,65.20
2018-05-04T11:51:54.958Z,64.80
2018-05-04T11:54:22.649Z,64.20
2018-05-04T11:56:51.061Z,65.20
2018-05-04T11:59:18.588Z,65.00
2018-05-04T12:01:46.214Z,61.40
2018-05-04T12:04:13.818Z,62.30
2018-05-04T12:06:41.432Z,62.10
2018-05-04T12:09:09.767Z,63.60
2018-05-04T12:11:37.716Z,63.70
2018-05-04T12:14:05.248Z,63.10
2018-05-04T12:16:32.822Z,62.30
2018-05-04T12:19:00.428Z,61.60
2018-05-04T12:21:28.007Z,61.10
2018-05-04T12:23:55.597Z,64.30
2018-05-04T12:26:23.107Z,61.20
2018-05-04T12:28:50.674Z,60.30
2018-05-04T12:31:18.257Z,61.70
2018-05-04T12:33:45.892Z,61.60
2018-05-04T12:36:14.281Z,61.50
2018-05-04T12:38:41.943Z,61.40
2018-05-04T12:41:09.536Z,60.60
2018-05-04T12:43:37.125Z,62.20
2018-05-04T12:46:05.435Z,60.80
2018-05-04T12:48:32.993Z,60.70
2018-05-04T12:51:00.547Z,61.20
2018-05-04T12:53:29.041Z,62.50
2018-05-04T12:55:57.344Z,61.00
2018-05-04T12:58:24.975Z,60.90
2018-05-04T13:00:52.528Z,61.80
2018-05-04T13:03:20.072Z,61.50
2018-05-04T13:05:47.668Z,61.50
2018-05-04T13:08:15.219Z,62.30
2018-05-04T13:10:43.599Z,64.60
2018-05-04T13:13:11.111Z,64.60
2018-05-04T13:15:38.685Z,62.80
2018-05-04T13:18:06.287Z,62.90
2018-05-04T13:20:33.845Z,61.80
2018-05-04T13:23:01.420Z,64.10
2018-05-04T13:25:29.078Z,62.70
2018-05-04T13:27:56.617Z,61.80
2018-05-04T13:30:24.221Z,63.30
2018-05-04T13:32:51.793Z,64.70
2018-05-04T13:35:19.396Z,64.30
2018-05-04T13:37:46.957Z,63.30
2018-05-04T13:40:14.614Z,63.40
2018-05-04T13:42:42.303Z,62.40
2018-05-04T13:45:10.038Z,62.70
2018-05-04T13:47:37.617Z,62.30
2018-05-04T13:50:05.172Z,62.30
2018-05-04T13:52:32.809Z,62.90
2018-05-04T13:55:01.134Z,62.90
2018-05-04T13:57:28.711Z,63.70
2018-05-04T13:59:56.230Z,62.70
2018-05-04T14:02:23.907Z,63.90
2018-05-04T14:04:51.545Z,63.40
2018-05-04T14:07:19.151Z,64.60
2018-05-04T14:09:46.727Z,63.00
2018-05-04T14:12:14.382Z,66.30
2018-05-04T14:14:41.935Z,64.60
2018-05-04T14:17:09.563Z,67.20
2018-05-04T14:19:37.159Z,66.50
2018-05-04T14:22:04.743Z,66.20
2018-05-04T14:24:32.340Z,67.40
2018-05-04T14:26:59.936Z,65.80
2018-05-04T14:29:27.495Z,66.10
2018-05-04T14:31:55.107Z,66.30
2018-05-04T14:34:23.463Z,66.80
2018-05-04T14:36:51.119Z,66.80
2018-05-04T14:39:18.779Z,66.20
2018-05-04T14:41:46.341Z,67.30
2018-05-04T14:44:13.939Z,66.50
2018-05-04T14:46:41.524Z,67.80
2018-05-04T14:49:09.167Z,66.90
2018-05-04T14:51:36.733Z,68.30
2018-05-04T14:54:04.381Z,66.40
2018-05-04T14:56:31.958Z,67.90
2018-05-04T14:58:59.534Z,67.40
2018-05-04T15:01:27.148Z,69.00
2018-05-04T15:03:54.813Z,67.70
2018-05-04T15:06:22.368Z,66.40
2018-05-04T15:08:50.832Z,66.30
2018-05-04T15:11:18.404Z,66.30
2018-05-04T15:13:46.797Z,66.60
2018-05-04T15:16:14.369Z,66.60
2018-05-04T15:18:42.043Z,66.80
2018-05-04T15:21:09.747Z,67.00
2018-05-04T15:23:37.356Z,66.90
2018-05-04T15:26:04.951Z,65.80
2018-05-04T15:28:32.523Z,66.70
2018-05-04T15:31:00.094Z,66.10
2018-05-04T15:33:27.635Z,67.30
2018-05-04T15:35:55.984Z,67.30
2018-05-04T15:38:23.538Z,67.30
2018-05-04T15:40:51.176Z,67.40
2018-05-04T15:43:18.779Z,68.00
2018-05-04T15:45:46.404Z,68.20
2018-05-04T15:48:20.326Z,67.60
2018-05-04T15:50:53.583Z,67.60
2018-05-04T15:53:21.127Z,68.70
2018-05-04T15:55:48.720Z,67.50
2018-05-04T15:58:17.068Z,68.50
2018-05-04T16:00:44.758Z,68.50
2018-05-04T16:03:12.313Z,68.50
2018-05-04T16:05:39.901Z,69.30
2018-05-04T16:08:07.506Z,68.80
2018-05-04T16:10:35.091Z,68.00
2018-05-04T16:13:03.469Z,69.40
2018-05-04T16:15:31.003Z,68.50
2018-05-04T16:17:58.620Z,68.20
2018-05-04T16:20:26.257Z,68.40
2018-05-04T16:22:53.811Z,69.20
2018-05-04T16:25:21.361Z,69.80
2018-05-04T16:27:48.979Z,69.70
2018-05-04T16:30:16.549Z,68.80
2018-05-04T16:32:44.179Z,69.80
2018-05-04T16:35:11.736Z,69.80
2018-05-04T16:37:39.344Z,69.70
2018-05-04T16:40:06.900Z,69.40
2018-05-04T16:42:34.491Z,69.70
2018-05-04T16:45:02.149Z,69.60
2018-05-04T16:47:29.707Z,69.70
2018-05-04T16:49:57.315Z,70.00
2018-05-04T16:52:24.931Z,69.90
2018-05-04T16:54:52.514Z,70.30
2018-05-04T16:57:20.801Z,70.60
2018-05-04T16:59:48.451Z,69.80
2018-05-04T17:02:16.003Z,71.00
2018-05-04T17:04:43.629Z,71.70
2018-05-04T17:07:11.179Z,72.00
2018-05-04T17:09:38.757Z,71.60
2018-05-04T17:12:06.311Z,71.50
2018-05-04T17:14:33.911Z,71.40
2018-05-04T17:17:02.257Z,71.60
2018-05-04T17:19:29.848Z,71.60
2018-05-04T17:21:58.272Z,69.50
2018-05-04T17:24:25.833Z,69.50
2018-05-04T17:26:53.389Z,68.90
2018-05-04T17:29:20.977Z,69.50
2018-05-04T17:31:48.630Z,69.20
2018-05-04T17:34:16.210Z,69.00
2018-05-04T17:36:44.583Z,69.30
2018-05-04T17:39:12.222Z,69.10
2018-05-04T17:41:39.765Z,67.70
2018-05-04T17:44:07.290Z,66.90
2018-05-04T17:46:34.865Z,65.90
2018-05-04T17:49:02.819Z,66.10
2018-05-04T17:51:30.447Z,66.20
2018-05-04T17:53:57.977Z,66.60
2018-05-04T17:56:25.595Z,66.40
2018-05-04T17:58:53.177Z,66.50
2018-05-04T18:01:20.762Z,67.10
2018-05-04T18:03:48.337Z,67.50
2018-05-04T18:06:15.918Z,67.50
2018-05-04T18:08:43.479Z,67.30
2018-05-04T18:11:11.063Z,67.30
2018-05-04T18:13:38.703Z,67.60
2018-05-04T18:16:06.289Z,67.70
2018-05-04T18:18:34.619Z,68.50
2018-05-04T18:21:02.270Z,68.40
2018-05-04T18:23:29.799Z,68.10
2018-05-04T18:25:57.429Z,67.60
2018-05-04T18:28:25.021Z,67.70
2018-05-04T18:30:52.535Z,67.60
2018-05-04T18:33:20.089Z,67.70
2018-05-04T18:35:47.643Z,67.90
2018-05-04T18:38:15.260Z,68.00
2018-05-04T18:40:42.799Z,68.40
2018-05-04T18:43:10.371Z,68.60
2018-05-04T18:45:37.933Z,69.20
2018-05-04T18:48:05.505Z,69.60
2018-05-04T18:50:33.053Z,70.00
2018-05-04T18:53:01.383Z,70.80
2018-05-04T18:55:28.976Z,70.70
2018-05-04T18:57:56.542Z,71.00
2018-05-04T19:00:24.851Z,71.00
2018-05-04T19:02:58.027Z,71.00
2018-05-04T19:05:25.639Z,71.50
2018-05-04T19:07:53.200Z,71.50
2018-05-04T19:10:20.785Z,71.60
2018-05-04T19:12:49.175Z,71.90
2018-05-04T19:15:16.793Z,71.90
2018-05-04T19:17:46.164Z,72.10
2018-05-04T19:20:13.723Z,72.30
2018-05-04T19:22:41.278Z,72.50
2018-05-04T19:25:08.879Z,72.60
2018-05-04T19:27:36.426Z,72.60
2018-05-04T19:30:04.108Z,72.60
2018-05-04T19:32:31.670Z,72.60
2018-05-04T19:34:59.240Z,72.60
2018-05-04T19:37:26.849Z,72.40
2018-05-04T19:39:54.531Z,72.70
2018-05-04T19:42:22.890Z,72.20
2018-05-04T19:44:50.478Z,72.20
2018-05-04T19:47:18.790Z,72.30
2018-05-04T19:49:46.369Z,72.30
2018-05-04T19:52:13.902Z,72.40
2018-05-04T19:54:41.491Z,72.70
2018-05-04T19:57:09.901Z,73.20
2018-05-04T19:59:37.479Z,73.10
2018-05-04T20:02:05.753Z,73.70
2018-05-04T20:04:33.345Z,73.70
2018-05-04T20:07:01.027Z,74.00
2018-05-04T20:09:28.544Z,74.00
2018-05-04T20:11:56.168Z,74.10
2018-05-04T20:14:23.716Z,74.20
2018-05-04T20:16:51.273Z,74.10
2018-05-04T20:19:18.821Z,74.00
2018-05-04T20:21:47.150Z,74.50
2018-05-04T20:24:14.701Z,74.30
2018-05-04T20:26:42.352Z,74.40
2018-05-04T20:29:09.895Z,74.40
2018-05-04T20:31:37.455Z,74.60
2018-05-04T20:34:05.036Z,74.70
2018-05-04T20:36:32.668Z,74.90
2018-05-04T20:39:00.328Z,74.90
2018-05-04T20:41:28.683Z,75.10
2018-05-04T20:43:56.250Z,75.20
2018-05-04T20:46:24.635Z,75.40
2018-05-04T20:48:52.181Z,75.20
2018-05-04T20:51:19.791Z,75.40
2018-05-04T20:53:47.348Z,75.70
2018-05-04T20:56:15.015Z,76.00
2018-05-04T20:58:42.606Z,76.00
2018-05-04T21:01:10.255Z,76.00
2018-05-04T21:03:37.837Z,76.10
2018-05-04T21:06:05.388Z,76.20
2018-05-04T21:08:32.987Z,76.20
2018-05-04T21:11:00.577Z,76.20
2018-05-04T21:13:28.172Z,76.30
2018-05-04T21:15:55.718Z,76.60
2018-05-04T21:18:23.283Z,76.80
2018-05-04T21:20:50.857Z,76.70
2018-05-04T21:23:18.471Z,76.90
2018-05-04T21:25:46.051Z,77.00
2018-05-04T21:28:13.652Z,77.70
2018-05-04T21:30:41.295Z,77.10
2018-05-04T21:33:08.935Z,77.20
2018-05-04T21:35:36.512Z,77.70
2018-05-04T21:38:04.103Z,77.60
2018-05-04T21:40:31.718Z,77.70
2018-05-04T21:42:59.247Z,78.00
2018-05-04T21:45:26.851Z,78.10
2018-05-04T21:47:54.412Z,78.10
2018-05-04T21:50:22.031Z,78.10
2018-05-04T21:52:49.561Z,78.40
2018-05-04T21:55:17.895Z,78.60
2018-05-04T21:57:45.449Z,78.10
2018-05-04T22:00:13.019Z,78.30
2018-05-04T22:02:40.567Z,78.30
2018-05-04T22:05:08.653Z,78.10
2018-05-04T22:07:36.195Z,78.10
2018-05-04T22:10:03.763Z,78.10
2018-05-04T22:12:32.097Z,78.30
2018-05-04T22:14:59.678Z,78.20
2018-05-04T22:17:27.242Z,78.60
2018-05-04T22:19:54.847Z,78.60
2018-05-04T22:22:22.454Z,78.50
2018-05-04T22:24:50.076Z,78.80
2018-05-04T22:27:17.649Z,79.00
2018-05-04T22:29:45.995Z,80.10
2018-05-04T22:32:13.521Z,79.50
2018-05-04T22:34:41.063Z,79.40
2018-05-04T22:37:08.744Z,79.50
2018-05-04T22:39:36.279Z,79.70
2018-05-04T22:42:03.898Z,79.80
2018-05-04T22:44:31.472Z,80.40
2018-05-04T22:46:59.164Z,80.30
2018-05-04T22:49:26.750Z,81.10
2018-05-04T22:51:54.392Z,81.50
2018-05-04T22:54:22.017Z,81.40
2018-05-04T22:56:49.622Z,81.70
2018-05-04T22:59:17.206Z,82.00
2018-05-04T23:01:44.820Z,82.00
2018-05-04T23:04:12.386Z,81.70
2018-05-04T23:06:39.970Z,81.90
2018-05-04T23:09:07.552Z,81.70
2018-05-04T23:11:35.165Z,82.50
2018-05-04T23:14:03.522Z,81.10
2018-05-04T23:16:31.125Z,81.00
2018-05-04T23:18:58.703Z,81.30
2018-05-04T23:21:26.287Z,81.30
2018-05-04T23:23:53.894Z,81.20
2018-05-04T23:26:21.433Z,81.30
2018-05-04T23:28:48.998Z,81.70
2018-05-04T23:31:16.546Z,81.60
2018-05-04T23:33:44.126Z,81.40
2018-05-04T23:36:11.826Z,81.60
2018-05-04T23:38:39.431Z,81.70
2018-05-04T23:41:07.783Z,82.30
2018-05-04T23:43:35.333Z,82.20
2018-05-04T23:46:02.849Z,81.30
2018-05-04T23:48:31.190Z,81.20
2018-05-04T23:50:58.727Z,81.10
2018-05-04T23:53:26.286Z,81.40
2018-05-04T23:55:53.843Z,81.30
2018-05-04T23:58:21.487Z,81.50
